Time;durP1;ratioP1;P1;durP2;ratioP2;P2;SDS_P1;SDS_P2;PMS_P1;PMS_P2;Temp;Humidity;BMP_temperature;BMP_pressure;BME280_temperature;BME280_humidity;BME280_pressure;Samples;Min_cycle;Max_cycle;Signal;HPM_P1;HPM_P2
2023/06/10 00:01:49;;;;;;;4.68;3.10;;;22.50;71.80;;;;;;10485457;28;20032;-68
2023/06/10 00:06:50;;;;;;;5.40;3.03;;;22.50;71.80;;;;;;10489845;28;20023;-67
2023/06/10 00:11:51;;;;;;;4.55;2.92;;;22.40;71.80;;;;;;10482637;28;20028;-69
2023/06/10 00:16:52;;;;;;;5.15;2.90;;;22.30;71.70;;;;;;10498436;28;20326;-68
2023/06/10 00:21:53;;;;;;;5.45;3.33;;;22.30;71.80;;;;;;10491624;28;20029;-68
2023/06/10 00:26:53;;;;;;;4.68;3.03;;;22.30;71.80;;;;;;10498256;28;20025;-68
2023/06/10 00:31:57;;;;;;;4.18;3.10;;;22.20;71.80;;;;;;10486930;28;20020;-68
2023/06/10 00:36:58;;;;;;;4.10;2.67;;;22.10;71.70;;;;;;10482012;28;20035;-68
2023/06/10 00:41:58;;;;;;;5.18;2.90;;;22.10;71.80;;;;;;10474227;28;20029;-68
2023/06/10 00:47:00;;;;;;;5.45;3.10;;;22.10;71.80;;;;;;10484565;28;20032;-68
2023/06/10 00:52:03;;;;;;;4.57;2.70;;;22.20;71.80;;;;;;10475644;28;20029;-69
2023/06/10 00:57:05;;;;;;;5.20;3.00;;;22.00;71.70;;;;;;10480792;28;20059;-68
2023/06/10 01:02:06;;;;;;;5.97;3.13;;;22.00;71.70;;;;;;10488471;28;20020;-69
2023/06/10 01:07:10;;;;;;;6.38;2.85;;;22.00;71.70;;;;;;10501105;28;20017;-69
2023/06/10 01:12:20;;;;;;;6.00;3.05;;;21.90;71.70;;;;;;10476645;28;20270;-70
2023/06/10 01:17:21;;;;;;;5.70;3.10;;;21.90;71.70;;;;;;10488033;28;20497;-69
2023/06/10 01:22:24;;;;;;;5.38;2.95;;;21.80;71.70;;;;;;10475152;28;20082;-69
2023/06/10 01:27:29;;;;;;;5.65;2.90;;;21.80;72.00;;;;;;10480946;28;20423;-69
2023/06/10 01:32:43;;;;;;;6.40;3.10;;;21.80;71.80;;;;;;10486520;28;20025;-69
2023/06/10 01:37:47;;;;;;;4.60;2.85;;;21.70;71.70;;;;;;10484747;28;20052;-69
2023/06/10 01:42:47;;;;;;;4.15;2.88;;;21.70;71.80;;;;;;10482733;28;20094;-68
2023/06/10 01:47:48;;;;;;;5.25;2.65;;;21.60;71.80;;;;;;10483168;28;20031;-69
2023/06/10 01:52:49;;;;;;;6.60;3.38;;;21.60;71.80;;;;;;10494114;28;20031;-69
2023/06/10 01:57:50;;;;;;;4.50;2.97;;;21.60;71.80;;;;;;10489672;28;20586;-69
2023/06/10 02:02:50;;;;;;;4.97;2.90;;;21.60;71.90;;;;;;10481841;28;20021;-69
2023/06/10 02:07:51;;;;;;;4.72;3.05;;;21.50;71.90;;;;;;10501539;28;20019;-69
2023/06/10 02:12:51;;;;;;;5.78;3.30;;;21.50;71.90;;;;;;10491946;28;20099;-69
2023/06/10 02:17:52;;;;;;;5.13;3.30;;;21.50;71.90;;;;;;10492094;28;20017;-68
2023/06/10 02:22:53;;;;;;;5.47;3.40;;;21.40;71.90;;;;;;10490288;28;20025;-69
2023/06/10 02:27:53;;;;;;;4.72;3.17;;;21.40;71.90;;;;;;10480969;28;20119;-69
2023/06/10 02:32:56;;;;;;;5.97;3.35;;;21.40;71.90;;;;;;10485205;28;20029;-68
2023/06/10 02:37:56;;;;;;;4.25;3.03;;;21.30;72.00;;;;;;10488151;28;20087;-67
2023/06/10 02:42:58;;;;;;;6.07;3.40;;;21.30;72.00;;;;;;10484831;28;20206;-68
2023/06/10 02:47:58;;;;;;;5.85;3.60;;;21.20;72.00;;;;;;10482523;28;20021;-68
2023/06/10 02:52:59;;;;;;;5.75;3.30;;;21.10;72.00;;;;;;10486334;28;20024;-67
2023/06/10 02:58:00;;;;;;;6.22;3.30;;;21.20;72.00;;;;;;10495989;28;20019;-68
2023/06/10 03:03:03;;;;;;;6.55;3.75;;;21.20;72.10;;;;;;10487938;28;20198;-68
2023/06/10 03:08:04;;;;;;;7.40;3.80;;;21.10;72.10;;;;;;10482100;28;20016;-68
2023/06/10 03:13:04;;;;;;;5.40;3.30;;;21.10;72.20;;;;;;10488624;28;20025;-68
2023/06/10 03:18:06;;;;;;;4.60;3.42;;;21.10;72.20;;;;;;10486284;28;20044;-69
2023/06/10 03:23:08;;;;;;;5.63;3.60;;;21.00;72.20;;;;;;10484905;28;20495;-67
2023/06/10 03:28:08;;;;;;;4.85;3.22;;;21.00;72.20;;;;;;10495439;28;20039;-68
2023/06/10 03:33:09;;;;;;;7.40;3.83;;;21.00;72.30;;;;;;10491003;28;20187;-67
2023/06/10 03:38:09;;;;;;;5.85;3.60;;;20.90;72.30;;;;;;10486194;28;20032;-68
2023/06/10 03:43:10;;;;;;;5.22;3.63;;;20.90;72.30;;;;;;10492031;28;20081;-69
2023/06/10 03:48:11;;;;;;;6.65;3.50;;;20.90;72.40;;;;;;10485307;28;20104;-69
2023/06/10 03:53:11;;;;;;;7.18;3.60;;;20.80;72.30;;;;;;10482786;28;20032;-68
2023/06/10 03:58:14;;;;;;;5.47;3.50;;;20.80;72.40;;;;;;10480885;28;20116;-67
2023/06/10 04:03:15;;;;;;;4.65;3.42;;;20.80;72.50;;;;;;10487577;28;20013;-68
2023/06/10 04:08:16;;;;;;;5.57;3.42;;;20.80;72.50;;;;;;10498443;28;20024;-68
2023/06/10 04:13:16;;;;;;;5.05;3.20;;;20.80;72.50;;;;;;10488427;28;20040;-67
2023/06/10 04:18:17;;;;;;;5.47;3.72;;;20.70;72.40;;;;;;10489063;28;20313;-68
2023/06/10 04:23:18;;;;;;;8.68;3.63;;;20.70;72.50;;;;;;10493077;28;20069;-68
2023/06/10 04:28:18;;;;;;;5.28;3.40;;;20.70;72.60;;;;;;10483562;28;20027;-68
2023/06/10 04:33:19;;;;;;;5.55;3.28;;;20.60;72.50;;;;;;10475705;28;20606;-68
2023/06/10 04:38:20;;;;;;;4.38;3.10;;;20.60;72.50;;;;;;10478098;28;20510;-67
2023/06/10 04:43:21;;;;;;;7.15;3.45;;;20.60;72.60;;;;;;10483910;28;20024;-68
2023/06/10 04:48:23;;;;;;;5.78;4.10;;;20.60;72.60;;;;;;10475753;28;20028;-68
2023/06/10 04:53:24;;;;;;;5.55;3.65;;;20.50;72.60;;;;;;10489410;28;20017;-68
2023/06/10 04:58:25;;;;;;;5.78;3.50;;;20.50;72.60;;;;;;10486586;28;20031;-67
2023/06/10 05:03:26;;;;;;;4.63;3.10;;;20.50;72.70;;;;;;10482770;28;20115;-68
2023/06/10 05:08:27;;;;;;;6.35;3.03;;;20.50;72.70;;;;;;10488764;28;20389;-68
2023/06/10 05:13:27;;;;;;;4.88;3.60;;;20.50;72.70;;;;;;10490639;28;20033;-67
2023/06/10 05:18:28;;;;;;;5.63;3.58;;;20.50;72.70;;;;;;10489517;28;20028;-67
2023/06/10 05:23:28;;;;;;;7.13;3.83;;;20.50;72.70;;;;;;10497374;28;20028;-68
2023/06/10 05:28:29;;;;;;;6.32;2.97;;;20.50;72.70;;;;;;10491137;28;20025;-67
2023/06/10 05:33:30;;;;;;;6.03;3.17;;;20.40;72.70;;;;;;10479244;28;20024;-68
2023/06/10 05:38:30;;;;;;;5.47;3.15;;;20.40;72.80;;;;;;10481967;28;20040;-67
2023/06/10 05:43:31;;;;;;;5.90;3.15;;;20.40;72.80;;;;;;10482367;28;20083;-68
2023/06/10 05:48:32;;;;;;;5.57;3.28;;;20.50;72.90;;;;;;10492122;28;20016;-68
2023/06/10 05:53:32;;;;;;;4.65;2.75;;;20.40;72.90;;;;;;10481487;28;20033;-67
2023/06/10 05:58:33;;;;;;;6.43;3.08;;;20.40;72.90;;;;;;10485064;28;20037;-68
2023/06/10 06:03:34;;;;;;;4.13;3.05;;;20.30;72.90;;;;;;10465992;28;20554;-68
2023/06/10 06:08:34;;;;;;;5.93;3.72;;;20.40;73.00;;;;;;10478941;28;20492;-68
2023/06/10 06:13:35;;;;;;;4.78;3.08;;;20.40;73.10;;;;;;10487630;28;20464;-68
2023/06/10 06:18:35;;;;;;;4.97;3.08;;;20.40;73.10;;;;;;10479628;28;20377;-68
2023/06/10 06:23:42;;;;;;;4.47;2.92;;;20.40;73.10;;;;;;10474440;28;20123;-68
2023/06/10 06:28:43;;;;;;;5.75;2.83;;;20.40;73.10;;;;;;10487483;28;20511;-66
2023/06/10 06:33:43;;;;;;;5.07;2.65;;;20.40;73.10;;;;;;10484864;28;20031;-68
2023/06/10 06:38:44;;;;;;;7.00;3.10;;;20.50;73.10;;;;;;10496508;28;20029;-68
2023/06/10 06:43:45;;;;;;;4.95;2.80;;;20.40;73.10;;;;;;10489169;28;20476;-68
2023/06/10 06:48:46;;;;;;;4.95;3.10;;;20.40;73.10;;;;;;10492761;28;20467;-67
2023/06/10 06:53:46;;;;;;;4.78;2.95;;;20.50;73.20;;;;;;10488841;28;20028;-68
2023/06/10 06:58:47;;;;;;;5.13;2.50;;;20.40;73.80;;;;;;10479606;28;20098;-67
2023/06/10 07:03:47;;;;;;;5.95;2.95;;;20.40;73.20;;;;;;10488615;28;20024;-67
2023/06/10 07:08:50;;;;;;;3.55;2.65;;;20.50;73.20;;;;;;10480349;28;20044;-68
2023/06/10 07:13:51;;;;;;;4.30;2.58;;;20.50;73.20;;;;;;10486853;28;20416;-68
2023/06/10 07:18:53;;;;;;;4.03;2.55;;;20.50;73.20;;;;;;10482063;28;20021;-68
2023/06/10 07:23:53;;;;;;;4.15;2.70;;;20.70;73.40;;;;;;10484348;28;20027;-68
2023/06/10 07:28:54;;;;;;;4.05;2.50;;;20.60;73.30;;;;;;10488323;28;20380;-68
2023/06/10 07:33:54;;;;;;;4.45;2.95;;;20.60;73.30;;;;;;10484429;28;20028;-68
2023/06/10 07:38:56;;;;;;;5.32;2.53;;;20.60;73.30;;;;;;10490109;28;20028;-67
2023/06/10 07:43:57;;;;;;;3.95;2.80;;;20.70;73.40;;;;;;10490031;28;20034;-67
2023/06/10 07:48:58;;;;;;;4.55;3.03;;;20.70;73.50;;;;;;10486618;28;20024;-67
2023/06/10 07:53:58;;;;;;;4.60;2.78;;;20.70;73.50;;;;;;10496140;28;20036;-69
2023/06/10 07:58:59;;;;;;;8.27;3.03;;;20.70;73.60;;;;;;10475821;28;20028;-65
2023/06/10 08:03:59;;;;;;;5.05;2.60;;;20.70;73.60;;;;;;10482084;28;20443;-66
2023/06/10 08:09:00;;;;;;;6.53;2.80;;;20.80;73.70;;;;;;10480054;28;20373;-69
2023/06/10 08:14:01;;;;;;;4.15;2.90;;;20.80;73.70;;;;;;10480904;28;20082;-68
2023/06/10 08:19:01;;;;;;;4.38;2.40;;;20.80;73.70;;;;;;10485566;28;20472;-69
2023/06/10 08:24:03;;;;;;;5.47;2.78;;;20.80;73.70;;;;;;10482326;28;20103;-70
2023/06/10 08:29:03;;;;;;;5.65;2.92;;;20.90;73.90;;;;;;10481197;28;20048;-69
2023/06/10 08:34:04;;;;;;;4.13;2.70;;;20.90;73.80;;;;;;10476220;28;20111;-69
2023/06/10 08:39:04;;;;;;;7.32;3.45;;;21.00;73.80;;;;;;10474441;28;20086;-67
2023/06/10 08:44:18;;;;;;;5.13;2.65;;;21.10;73.90;;;;;;10483107;28;20027;-68
2023/06/10 08:49:21;;;;;;;6.47;2.92;;;21.10;74.00;;;;;;10487765;28;20119;-68
2023/06/10 08:54:24;;;;;;;4.63;2.80;;;21.10;73.80;;;;;;10481780;28;20512;-67
2023/06/10 08:59:25;;;;;;;6.30;2.75;;;21.10;73.80;;;;;;10474397;28;20021;-68
2023/06/10 09:04:27;;;;;;;4.32;2.85;;;21.20;73.70;;;;;;10489273;28;20032;-70
2023/06/10 09:09:30;;;;;;;5.60;3.47;;;21.30;73.70;;;;;;10482455;28;20419;-68
2023/06/10 09:14:31;;;;;;;4.22;2.60;;;21.30;73.60;;;;;;10491397;28;20458;-70
2023/06/10 09:19:32;;;;;;;6.40;2.85;;;21.40;73.50;;;;;;10479623;28;20111;-70
2023/06/10 09:24:33;;;;;;;4.40;3.00;;;21.40;73.40;;;;;;10481345;28;20572;-70
2023/06/10 09:29:54;;;;;;;3.95;2.45;;;21.40;73.50;;;;;;10478043;28;20028;-72
2023/06/10 09:34:55;;;;;;;5.55;2.63;;;21.50;73.70;;;;;;10491587;28;20024;-70
2023/06/10 09:40:06;;;;;;;7.68;3.45;;;21.50;73.50;;;;;;10479053;28;20020;-70
2023/06/10 09:45:07;;;;;;;4.13;2.40;;;21.60;73.60;;;;;;10487734;28;20143;-70
2023/06/10 09:50:08;;;;;;;7.28;3.45;;;21.60;73.50;;;;;;10484276;28;20584;-70
2023/06/10 09:55:12;;;;;;;3.90;2.55;;;21.70;73.50;;;;;;10484842;28;20132;-68
2023/06/10 10:00:13;;;;;;;3.72;2.78;;;21.70;73.30;;;;;;10477806;28;20051;-69
2023/06/10 10:05:19;;;;;;;5.78;2.90;;;21.80;73.30;;;;;;10490856;28;20112;-69
2023/06/10 10:10:21;;;;;;;5.00;3.00;;;21.80;73.20;;;;;;10490070;28;20043;-69
2023/06/10 10:15:25;;;;;;;6.30;2.90;;;21.90;73.10;;;;;;10490335;28;20035;-69
2023/06/10 10:20:29;;;;;;;4.63;3.15;;;22.00;73.10;;;;;;10503179;28;20091;-69
2023/06/10 10:25:35;;;;;;;4.05;2.90;;;22.00;73.00;;;;;;10487882;28;20028;-69
2023/06/10 10:30:44;;;;;;;5.63;2.78;;;22.10;73.00;;;;;;10485976;28;20031;-69
2023/06/10 10:35:46;;;;;;;5.45;3.20;;;22.10;73.00;;;;;;10499149;28;20191;-69
2023/06/10 10:40:48;;;;;;;4.47;3.05;;;22.20;72.80;;;;;;10494766;28;20013;-69
2023/06/10 10:46:12;;;;;;;4.45;3.03;;;22.30;72.80;;;;;;10488380;28;20202;-69
2023/06/10 10:51:15;;;;;;;7.00;3.40;;;22.30;72.70;;;;;;10486206;28;20033;-69
2023/06/10 10:56:20;;;;;;;4.28;2.92;;;22.40;72.70;;;;;;10495208;28;20027;-69
2023/06/10 11:01:21;;;;;;;4.68;3.30;;;22.40;72.60;;;;;;10489531;28;20531;-69
2023/06/10 11:06:22;;;;;;;5.88;3.17;;;22.50;72.50;;;;;;10479262;28;20100;-69
2023/06/10 11:11:27;;;;;;;5.32;3.45;;;22.60;72.50;;;;;;10480618;28;20041;-69
2023/06/10 11:16:29;;;;;;;5.60;3.67;;;22.60;72.40;;;;;;10507756;28;20024;-69
2023/06/10 11:21:29;;;;;;;3.85;2.75;;;22.70;72.30;;;;;;10487094;28;20547;-70
2023/06/10 11:26:34;;;;;;;3.95;2.95;;;22.80;72.30;;;;;;10502177;28;20025;-69
2023/06/10 11:31:48;;;;;;;4.88;3.30;;;22.80;72.30;;;;;;10483827;28;20036;-69
2023/06/10 11:36:49;;;;;;;5.72;3.20;;;22.90;72.30;;;;;;10490436;28;20036;-69
2023/06/10 11:41:51;;;;;;;4.70;3.10;;;23.00;72.20;;;;;;10487186;28;20046;-69
2023/06/10 11:46:52;;;;;;;5.07;3.03;;;23.00;72.10;;;;;;10488286;28;20040;-69
2023/06/10 11:51:52;;;;;;;4.40;3.00;;;23.10;72.20;;;;;;10495194;28;20032;-69
2023/06/10 11:56:59;;;;;;;4.60;3.40;;;23.20;72.00;;;;;;10488825;28;20028;-69
2023/06/10 12:01:59;;;;;;;4.97;3.25;;;23.20;71.80;;;;;;10488032;28;20070;-69
2023/06/10 12:07:00;;;;;;;5.45;3.55;;;23.30;71.80;;;;;;10485027;28;20154;-69
2023/06/10 12:12:05;;;;;;;4.15;3.10;;;23.40;71.60;;;;;;10478516;28;20029;-69
2023/06/10 12:17:06;;;;;;;4.40;3.00;;;23.40;71.50;;;;;;10487000;28;20017;-69
2023/06/10 12:22:07;;;;;;;4.90;3.35;;;23.50;71.40;;;;;;10480888;28;20028;-69
2023/06/10 12:27:11;;;;;;;4.70;3.20;;;23.60;71.30;;;;;;10482875;28;20033;-69
2023/06/10 12:32:15;;;;;;;5.05;3.40;;;23.70;71.30;;;;;;10489870;28;20029;-70
2023/06/10 12:37:16;;;;;;;4.78;2.95;;;23.70;71.00;;;;;;10482484;28;20021;-70
2023/06/10 12:42:21;;;;;;;3.67;3.20;;;23.80;71.00;;;;;;10482394;28;20096;-70
2023/06/10 12:47:31;;;;;;;5.70;3.30;;;23.80;70.90;;;;;;10480676;28;20506;-69
2023/06/10 12:52:32;;;;;;;6.05;3.28;;;23.90;70.70;;;;;;10479025;28;20476;-69
2023/06/10 12:57:33;;;;;;;5.38;3.28;;;24.00;70.70;;;;;;10477016;28;20028;-70
2023/06/10 13:02:34;;;;;;;3.58;2.60;;;24.00;70.50;;;;;;10485573;28;20062;-70
2023/06/10 13:07:35;;;;;;;5.00;2.97;;;24.10;70.30;;;;;;10478360;28;20033;-69
2023/06/10 13:12:36;;;;;;;3.60;2.47;;;24.20;70.30;;;;;;10476830;28;20035;-70
2023/06/10 13:17:37;;;;;;;3.35;2.55;;;24.20;70.00;;;;;;10474030;28;20021;-70
2023/06/10 13:22:38;;;;;;;3.35;2.53;;;24.40;69.80;;;;;;10492496;28;20064;-70
2023/06/10 13:27:39;;;;;;;5.03;2.63;;;24.50;69.70;;;;;;10483801;28;20059;-70
2023/06/10 13:32:39;;;;;;;4.35;2.63;;;24.50;69.50;;;;;;10474465;28;20037;-70
2023/06/10 13:37:40;;;;;;;4.75;3.00;;;24.70;69.60;;;;;;10477290;28;20093;-70
2023/06/10 13:42:41;;;;;;;3.00;2.30;;;24.70;69.30;;;;;;10477467;28;20071;-70
2023/06/10 13:47:42;;;;;;;4.18;2.35;;;24.80;69.30;;;;;;10486570;28;20051;-70
2023/06/10 13:52:43;;;;;;;3.10;2.20;;;25.00;68.90;;;;;;10492847;28;20499;-70
2023/06/10 13:57:43;;;;;;;4.22;2.40;;;25.10;68.90;;;;;;10488568;28;20022;-70
2023/06/10 14:02:44;;;;;;;3.22;2.38;;;25.20;68.70;;;;;;10486070;28;20531;-70
2023/06/10 14:07:45;;;;;;;3.83;2.35;;;25.40;68.60;;;;;;10482565;28;20028;-70
2023/06/10 14:12:46;;;;;;;3.88;2.60;;;25.40;68.50;;;;;;10491988;28;20024;-70
2023/06/10 14:17:47;;;;;;;2.95;2.20;;;25.60;68.30;;;;;;10487014;28;20012;-70
2023/06/10 14:22:47;;;;;;;3.55;2.17;;;25.70;68.40;;;;;;10487089;28;20451;-70
2023/06/10 14:27:48;;;;;;;4.45;2.08;;;25.80;68.10;;;;;;10491446;28;20116;-70
2023/06/10 14:32:48;;;;;;;3.60;2.38;;;25.90;68.10;;;;;;10483651;28;20519;-70
2023/06/10 14:37:49;;;;;;;2.50;2.10;;;26.00;68.00;;;;;;10485441;28;20185;-70
2023/06/10 14:42:50;;;;;;;3.72;2.05;;;26.10;67.90;;;;;;10494503;28;20021;-70
2023/06/10 14:47:50;;;;;;;3.65;2.10;;;26.20;67.80;;;;;;10485662;28;20036;-70
2023/06/10 14:52:51;;;;;;;3.88;2.20;;;26.30;67.70;;;;;;10490547;28;20025;-70
2023/06/10 14:57:52;;;;;;;3.63;2.40;;;26.50;67.60;;;;;;10479569;28;20109;-70
2023/06/10 15:02:55;;;;;;;3.40;2.15;;;26.60;67.50;;;;;;10489399;28;20074;-69
2023/06/10 15:07:56;;;;;;;2.67;2.00;;;26.70;67.50;;;;;;10491893;28;20039;-68
2023/06/10 15:12:57;;;;;;;2.97;2.00;;;26.80;67.20;;;;;;10487553;28;20024;-68
2023/06/10 15:17:57;;;;;;;3.90;1.98;;;26.90;67.20;;;;;;10489238;28;20020;-68
2023/06/10 15:22:58;;;;;;;2.83;2.13;;;27.00;67.20;;;;;;10487995;28;20213;-69
2023/06/10 15:27:59;;;;;;;2.65;1.80;;;27.10;67.20;;;;;;10496021;28;20028;-68
2023/06/10 15:32:59;;;;;;;2.72;1.98;;;27.20;67.20;;;;;;10475618;28;20341;-68
2023/06/10 15:38:00;;;;;;;2.75;2.17;;;27.30;67.20;;;;;;10481964;28;20025;-67
2023/06/10 15:43:00;;;;;;;2.92;2.15;;;27.40;67.20;;;;;;10494266;28;20028;-68
2023/06/10 15:48:01;;;;;;;4.18;1.88;;;27.50;67.10;;;;;;10482982;28;20342;-69
2023/06/10 15:53:02;;;;;;;3.33;2.03;;;27.50;67.10;;;;;;10479554;28;20067;-68
2023/06/10 15:58:03;;;;;;;3.70;2.08;;;27.50;67.10;;;;;;10484668;28;20021;-68
2023/06/10 16:03:04;;;;;;;3.97;2.20;;;27.50;67.10;;;;;;10492976;28;20429;-68
2023/06/10 16:08:05;;;;;;;3.13;2.05;;;27.40;67.40;;;;;;10485292;28;20032;-68
2023/06/10 16:13:05;;;;;;;2.28;1.92;;;27.30;67.60;;;;;;10485797;28;20442;-68
2023/06/10 16:18:06;;;;;;;3.17;2.10;;;27.20;67.80;;;;;;10482051;28;20392;-68
2023/06/10 16:23:07;;;;;;;2.78;2.05;;;27.10;68.00;;;;;;10490447;28;20152;-68
2023/06/10 16:28:07;;;;;;;3.13;2.40;;;27.00;68.10;;;;;;10477818;28;20033;-68
2023/06/10 16:33:08;;;;;;;2.70;2.40;;;27.00;68.30;;;;;;10489568;28;20035;-69
2023/06/10 16:38:09;;;;;;;2.40;2.20;;;26.90;68.40;;;;;;10483009;28;20533;-68
2023/06/10 16:43:09;;;;;;;3.38;2.30;;;26.90;68.50;;;;;;10484331;28;20024;-68
2023/06/10 16:48:10;;;;;;;2.28;2.05;;;26.90;68.60;;;;;;10484155;28;20036;-68
2023/06/10 16:53:11;;;;;;;3.65;2.40;;;26.90;68.80;;;;;;10482089;28;20024;-68
2023/06/10 16:58:11;;;;;;;3.67;2.72;;;26.80;68.80;;;;;;10479535;28;20416;-68
2023/06/10 17:03:12;;;;;;;3.63;2.47;;;26.70;68.90;;;;;;10481446;28;20037;-68
2023/06/10 17:08:13;;;;;;;3.95;2.83;;;26.70;69.00;;;;;;10488670;28;20040;-68
2023/06/10 17:13:14;;;;;;;3.08;2.40;;;26.60;69.00;;;;;;10503197;28;20445;-68
2023/06/10 17:18:14;;;;;;;2.72;2.20;;;26.60;69.10;;;;;;10497177;28;20051;-68
2023/06/10 17:23:15;;;;;;;3.13;2.50;;;26.50;69.10;;;;;;10482092;28;20039;-68
2023/06/10 17:28:16;;;;;;;2.47;2.15;;;26.50;69.20;;;;;;10491376;28;20230;-68
2023/06/10 17:33:16;;;;;;;3.17;2.35;;;26.50;69.30;;;;;;10480480;28;20033;-68
2023/06/10 17:38:20;;;;;;;4.18;2.20;;;26.40;69.20;;;;;;10476790;28;20500;-68
2023/06/10 17:43:21;;;;;;;3.53;2.40;;;26.30;69.30;;;;;;10476572;28;20039;-68
2023/06/10 17:48:22;;;;;;;3.08;2.50;;;26.30;69.30;;;;;;10487430;28;20047;-68
2023/06/10 17:53:22;;;;;;;2.90;2.10;;;26.20;69.30;;;;;;10481566;28;20047;-68
2023/06/10 17:58:23;;;;;;;3.10;2.45;;;26.20;69.30;;;;;;10488520;28;20074;-68
2023/06/10 18:03:26;;;;;;;3.47;2.83;;;26.20;69.20;;;;;;10477510;28;20136;-68
2023/06/10 18:08:28;;;;;;;3.45;2.25;;;26.10;69.00;;;;;;10484336;28;20028;-68
2023/06/10 18:13:28;;;;;;;4.10;2.35;;;26.10;69.00;;;;;;10481676;28;20423;-68
2023/06/10 18:18:29;;;;;;;3.10;2.50;;;26.10;69.00;;;;;;10488616;28;20033;-68
2023/06/10 18:23:30;;;;;;;4.40;2.65;;;26.00;69.10;;;;;;10488019;28;20518;-68
2023/06/10 18:28:30;;;;;;;2.92;2.30;;;26.00;69.20;;;;;;10485866;28;20024;-68
2023/06/10 18:33:32;;;;;;;3.33;2.30;;;26.00;69.20;;;;;;10507748;28;20078;-68
2023/06/10 18:38:33;;;;;;;4.47;2.50;;;25.90;69.30;;;;;;10495698;28;20043;-68
2023/06/10 18:43:34;;;;;;;4.68;2.38;;;25.90;69.40;;;;;;10495301;28;20090;-68
2023/06/10 18:48:35;;;;;;;3.55;2.47;;;25.80;69.50;;;;;;10497363;28;20028;-68
2023/06/10 18:53:35;;;;;;;3.55;2.50;;;25.80;69.70;;;;;;10496206;28;20436;-68
2023/06/10 18:58:36;;;;;;;3.72;2.55;;;25.70;69.70;;;;;;10500494;28;20340;-69
2023/06/10 19:03:36;;;;;;;2.72;2.25;;;25.70;69.80;;;;;;10499007;28;20066;-68
2023/06/10 19:08:37;;;;;;;3.55;2.63;;;25.60;69.90;;;;;;10495775;28;20115;-68
2023/06/10 19:13:37;;;;;;;3.47;2.33;;;25.60;70.10;;;;;;10496513;28;20051;-68
2023/06/10 19:18:38;;;;;;;3.53;2.70;;;25.60;70.30;;;;;;10492077;28;20035;-68
2023/06/10 19:23:39;;;;;;;4.00;2.30;;;25.50;70.30;;;;;;10488851;28;20025;-68
2023/06/10 19:28:39;;;;;;;4.65;2.40;;;25.40;70.40;;;;;;10490540;28;20027;-69
2023/06/10 19:33:40;;;;;;;3.10;2.45;;;25.40;70.60;;;;;;10492388;28;20111;-68
2023/06/10 19:38:41;;;;;;;4.00;2.33;;;25.40;70.70;;;;;;10489105;28;20024;-68
2023/06/10 19:43:42;;;;;;;2.95;2.28;;;25.30;70.70;;;;;;10486418;28;20336;-68
2023/06/10 19:48:42;;;;;;;2.65;2.25;;;25.30;70.90;;;;;;10490860;28;20487;-68
2023/06/10 19:53:44;;;;;;;2.90;2.10;;;25.20;70.80;;;;;;10496800;28;20028;-69
2023/06/10 19:58:46;;;;;;;2.95;2.50;;;25.20;70.90;;;;;;10496234;28;20024;-69
2023/06/10 20:03:46;;;;;;;2.67;2.28;;;25.10;70.90;;;;;;10493542;28;20085;-68
2023/06/10 20:08:47;;;;;;;2.80;2.10;;;25.10;71.00;;;;;;10477851;28;20343;-68
2023/06/10 20:13:48;;;;;;;4.00;2.38;;;25.00;71.10;;;;;;10494526;28;20102;-68
2023/06/10 20:18:51;;;;;;;2.72;2.50;;;25.00;71.10;;;;;;10493143;28;20021;-68
2023/06/10 20:23:52;;;;;;;4.07;3.10;;;25.00;71.20;;;;;;10483237;28;20027;-68
2023/06/10 20:28:53;;;;;;;2.97;1.90;;;24.90;71.20;;;;;;10485701;28;20484;-67
2023/06/10 20:33:54;;;;;;;3.53;2.30;;;24.90;71.30;;;;;;10484945;28;20025;-68
2023/06/10 20:38:55;;;;;;;2.70;2.13;;;24.80;71.30;;;;;;10490569;28;20111;-68
2023/06/10 20:43:57;;;;;;;3.40;2.38;;;24.70;71.30;;;;;;10490871;28;20020;-68
2023/06/10 20:48:57;;;;;;;3.13;2.22;;;24.70;71.40;;;;;;10491895;28;20020;-67
2023/06/10 20:54:01;;;;;;;2.55;2.25;;;24.70;71.40;;;;;;10479490;28;20028;-67
2023/06/10 20:59:02;;;;;;;2.40;2.03;;;24.60;71.50;;;;;;10486219;28;20074;-68
2023/06/10 21:04:02;;;;;;;2.58;2.30;;;24.60;71.50;;;;;;10500815;28;20020;-69
2023/06/10 21:09:03;;;;;;;3.28;2.47;;;24.50;71.50;;;;;;10502271;28;20031;-69
2023/06/10 21:14:04;;;;;;;3.28;2.60;;;24.50;71.60;;;;;;10489523;28;20145;-70
2023/06/10 21:19:04;;;;;;;2.88;2.40;;;24.50;71.60;;;;;;10494229;28;20542;-70
2023/06/10 21:24:06;;;;;;;3.88;2.55;;;24.40;71.60;;;;;;10487149;28;20360;-70
2023/06/10 21:29:06;;;;;;;4.03;2.80;;;24.40;71.70;;;;;;10491667;28;20230;-70
2023/06/10 21:34:07;;;;;;;2.83;2.25;;;24.30;71.70;;;;;;10488656;28;20016;-70
2023/06/10 21:39:08;;;;;;;2.83;2.47;;;24.30;71.70;;;;;;10497862;28;20017;-70
2023/06/10 21:44:08;;;;;;;3.50;2.55;;;24.20;71.90;;;;;;10495680;28;20017;-70
2023/06/10 21:49:09;;;;;;;3.30;2.20;;;24.20;71.80;;;;;;10487542;28;20025;-70
2023/06/10 21:54:09;;;;;;;3.67;2.33;;;24.20;71.80;;;;;;10492296;28;20499;-70
2023/06/10 21:59:10;;;;;;;3.00;2.33;;;24.20;71.90;;;;;;10483897;28;20039;-70
2023/06/10 22:04:11;;;;;;;3.92;2.50;;;24.10;71.90;;;;;;10488443;28;20032;-70
2023/06/10 22:09:11;;;;;;;3.53;2.55;;;24.10;72.00;;;;;;10490639;28;20401;-70
2023/06/10 22:14:12;;;;;;;3.83;2.53;;;24.00;71.90;;;;;;10486833;28;20146;-70
2023/06/10 22:19:13;;;;;;;3.65;2.47;;;24.00;72.10;;;;;;10499861;28;20506;-70
2023/06/10 22:24:18;;;;;;;4.65;3.28;;;23.90;72.10;;;;;;10502357;28;20028;-69
2023/06/10 22:29:18;;;;;;;3.58;2.33;;;23.90;72.20;;;;;;10495175;28;20028;-70
2023/06/10 22:34:19;;;;;;;2.92;2.30;;;23.80;72.20;;;;;;10485791;28;20024;-70
2023/06/10 22:39:19;;;;;;;3.47;2.65;;;23.80;72.30;;;;;;10490333;28;20115;-70
2023/06/10 22:44:20;;;;;;;4.70;2.92;;;23.80;72.40;;;;;;10488981;28;20052;-70
2023/06/10 22:49:21;;;;;;;4.35;2.70;;;23.70;72.40;;;;;;10486615;28;20027;-70
2023/06/10 22:54:28;;;;;;;3.53;2.33;;;23.70;72.50;;;;;;10495779;28;20479;-70
2023/06/10 22:59:28;;;;;;;2.88;2.28;;;23.70;72.60;;;;;;10486012;28;20116;-70
2023/06/10 23:04:29;;;;;;;3.47;2.47;;;23.60;72.70;;;;;;10483359;28;20531;-70
2023/06/10 23:09:30;;;;;;;4.90;2.58;;;23.60;72.80;;;;;;10488892;28;20032;-70
2023/06/10 23:14:30;;;;;;;3.63;2.33;;;23.60;72.90;;;;;;10493270;28;20051;-70
2023/06/10 23:19:31;;;;;;;3.47;2.42;;;23.50;73.00;;;;;;10487529;28;20094;-69
2023/06/10 23:24:32;;;;;;;4.88;2.60;;;23.40;73.00;;;;;;10487531;28;20039;-70
2023/06/10 23:29:33;;;;;;;3.53;2.40;;;23.40;73.10;;;;;;10492473;28;20475;-70
2023/06/10 23:34:33;;;;;;;3.20;2.45;;;23.40;73.20;;;;;;10490559;28;20108;-70
2023/06/10 23:39:34;;;;;;;5.45;2.72;;;23.30;73.20;;;;;;10488134;28;20078;-71
2023/06/10 23:44:34;;;;;;;3.33;2.70;;;23.30;73.30;;;;;;10496455;28;20028;-69
2023/06/10 23:49:35;;;;;;;3.67;2.40;;;23.30;73.40;;;;;;10491912;28;20027;-70
2023/06/10 23:54:36;;;;;;;3.53;2.20;;;23.20;73.50;;;;;;10485415;28;20016;-70
2023/06/10 23:59:36;;;;;;;3.90;2.65;;;23.20;73.60;;;;;;10488313;28;20028;-69
